sensor_id;sensor_type;location;lat;lon;timestamp;pressure;altitude;pressure_sealevel;temperature;humidity
9855;BME280;4966;48.112;9.282;2023-06-26T00:01:15;94797.09;;;16.69;72.66
9855;BME280;4966;48.112;9.282;2023-06-26T00:03:40;94798.31;;;16.71;72.52
9855;BME280;4966;48.112;9.282;2023-06-26T00:06:05;94800.06;;;16.56;72.96
9855;BME280;4966;48.112;9.282;2023-06-26T00:08:31;94799.06;;;16.38;74.01
9855;BME280;4966;48.112;9.282;2023-06-26T00:10:56;94799.19;;;16.49;73.88
9855;BME280;4966;48.112;9.282;2023-06-26T00:13:22;94800.84;;;16.53;73.29
9855;BME280;4966;48.112;9.282;2023-06-26T00:15:48;94802.44;;;16.54;72.84
9855;BME280;4966;48.112;9.282;2023-06-26T00:18:13;94806.69;;;16.52;72.91
9855;BME280;4966;48.112;9.282;2023-06-26T00:20:39;94796.75;;;16.40;73.05
9855;BME280;4966;48.112;9.282;2023-06-26T00:23:04;94808.78;;;16.32;73.94
9855;BME280;4966;48.112;9.282;2023-06-26T00:25:35;94811.78;;;16.23;74.48
9855;BME280;4966;48.112;9.282;2023-06-26T00:28:00;94812.75;;;16.34;74.18
9855;BME280;4966;48.112;9.282;2023-06-26T00:30:26;94813.53;;;16.35;73.34
9855;BME280;4966;48.112;9.282;2023-06-26T00:32:51;94807.22;;;16.31;73.35
9855;BME280;4966;48.112;9.282;2023-06-26T00:35:17;94807.13;;;16.24;73.84
9855;BME280;4966;48.112;9.282;2023-06-26T00:37:42;94802.31;;;16.17;74.10
9855;BME280;4966;48.112;9.282;2023-06-26T00:40:08;94807.47;;;16.22;73.98
9855;BME280;4966;48.112;9.282;2023-06-26T00:42:34;94803.94;;;16.22;73.90
9855;BME280;4966;48.112;9.282;2023-06-26T00:44:59;94819.31;;;16.26;73.38
9855;BME280;4966;48.112;9.282;2023-06-26T00:47:24;94820.75;;;16.16;73.59
9855;BME280;4966;48.112;9.282;2023-06-26T00:49:51;94815.63;;;16.15;73.57
9855;BME280;4966;48.112;9.282;2023-06-26T00:52:17;94823.75;;;16.08;73.75
9855;BME280;4966;48.112;9.282;2023-06-26T00:54:42;94817.16;;;16.12;73.07
9855;BME280;4966;48.112;9.282;2023-06-26T00:57:08;94822.06;;;16.00;74.23
9855;BME280;4966;48.112;9.282;2023-06-26T00:59:34;94810.97;;;15.92;74.62
9855;BME280;4966;48.112;9.282;2023-06-26T01:01:59;94819.09;;;15.85;75.01
9855;BME280;4966;48.112;9.282;2023-06-26T01:04:25;94816.03;;;15.90;74.54
9855;BME280;4966;48.112;9.282;2023-06-26T01:06:52;94819.22;;;15.92;74.33
9855;BME280;4966;48.112;9.282;2023-06-26T01:09:19;94815.78;;;15.53;76.54
9855;BME280;4966;48.112;9.282;2023-06-26T01:11:46;94812.03;;;15.61;76.63
9855;BME280;4966;48.112;9.282;2023-06-26T01:14:11;94804.00;;;15.72;76.26
9855;BME280;4966;48.112;9.282;2023-06-26T01:16:38;94804.00;;;15.72;75.72
9855;BME280;4966;48.112;9.282;2023-06-26T01:19:09;94806.06;;;15.79;75.60
9855;BME280;4966;48.112;9.282;2023-06-26T01:21:40;94805.44;;;15.66;76.28
9855;BME280;4966;48.112;9.282;2023-06-26T01:24:15;94799.97;;;15.66;76.23
9855;BME280;4966;48.112;9.282;2023-06-26T01:26:48;94805.38;;;15.62;75.63
9855;BME280;4966;48.112;9.282;2023-06-26T01:29:15;94801.72;;;15.55;76.40
9855;BME280;4966;48.112;9.282;2023-06-26T01:31:42;94796.84;;;15.67;75.30
9855;BME280;4966;48.112;9.282;2023-06-26T01:34:09;94797.56;;;15.64;74.63
9855;BME280;4966;48.112;9.282;2023-06-26T01:36:35;94793.63;;;15.62;74.91
9855;BME280;4966;48.112;9.282;2023-06-26T01:39:02;94790.09;;;15.61;74.92
9855;BME280;4966;48.112;9.282;2023-06-26T01:41:27;94790.13;;;15.42;76.03
9855;BME280;4966;48.112;9.282;2023-06-26T01:44:11;94793.53;;;15.58;74.99
9855;BME280;4966;48.112;9.282;2023-06-26T01:46:55;94791.91;;;15.53;75.14
9855;BME280;4966;48.112;9.282;2023-06-26T01:52:20;94795.69;;;15.45;74.95
9855;BME280;4966;48.112;9.282;2023-06-26T01:57:38;94794.72;;;15.34;75.84
9855;BME280;4966;48.112;9.282;2023-06-26T02:00:05;94794.25;;;15.28;75.79
9855;BME280;4966;48.112;9.282;2023-06-26T02:02:34;94792.63;;;15.27;76.26
9855;BME280;4966;48.112;9.282;2023-06-26T02:04:59;94801.25;;;15.26;76.72
9855;BME280;4966;48.112;9.282;2023-06-26T02:07:24;94793.88;;;15.30;76.29
9855;BME280;4966;48.112;9.282;2023-06-26T02:09:50;94795.09;;;15.32;75.84
9855;BME280;4966;48.112;9.282;2023-06-26T02:12:15;94806.94;;;15.17;76.09
9855;BME280;4966;48.112;9.282;2023-06-26T02:14:40;94796.78;;;15.18;76.39
9855;BME280;4966;48.112;9.282;2023-06-26T02:17:06;94800.19;;;15.11;76.32
9855;BME280;4966;48.112;9.282;2023-06-26T02:19:34;94803.59;;;15.04;76.86
9855;BME280;4966;48.112;9.282;2023-06-26T02:21:59;94793.19;;;15.14;76.16
9855;BME280;4966;48.112;9.282;2023-06-26T02:24:24;94799.63;;;15.02;76.54
9855;BME280;4966;48.112;9.282;2023-06-26T02:26:50;94799.41;;;14.91;76.87
9855;BME280;4966;48.112;9.282;2023-06-26T02:29:15;94800.94;;;14.88;77.82
9855;BME280;4966;48.112;9.282;2023-06-26T02:31:41;94798.94;;;14.85;77.33
9855;BME280;4966;48.112;9.282;2023-06-26T02:34:06;94793.09;;;14.87;78.10
9855;BME280;4966;48.112;9.282;2023-06-26T02:36:31;94789.94;;;14.85;77.56
9855;BME280;4966;48.112;9.282;2023-06-26T02:38:56;94794.53;;;14.81;78.26
9855;BME280;4966;48.112;9.282;2023-06-26T02:41:22;94792.16;;;14.79;77.99
9855;BME280;4966;48.112;9.282;2023-06-26T02:43:47;94789.19;;;14.88;77.46
9855;BME280;4966;48.112;9.282;2023-06-26T02:46:12;94799.06;;;14.93;76.95
9855;BME280;4966;48.112;9.282;2023-06-26T02:48:38;94796.38;;;14.96;76.34
9855;BME280;4966;48.112;9.282;2023-06-26T02:51:03;94798.72;;;14.94;76.26
9855;BME280;4966;48.112;9.282;2023-06-26T02:53:28;94805.56;;;14.84;76.48
9855;BME280;4966;48.112;9.282;2023-06-26T02:55:54;94802.75;;;14.81;76.64
9855;BME280;4966;48.112;9.282;2023-06-26T02:58:19;94794.50;;;14.77;76.71
9855;BME280;4966;48.112;9.282;2023-06-26T03:00:44;94801.19;;;14.80;76.43
9855;BME280;4966;48.112;9.282;2023-06-26T03:03:10;94807.50;;;14.84;76.26
9855;BME280;4966;48.112;9.282;2023-06-26T03:05:35;94803.31;;;14.90;76.69
9855;BME280;4966;48.112;9.282;2023-06-26T03:08:02;94804.47;;;14.89;76.29
9855;BME280;4966;48.112;9.282;2023-06-26T03:10:27;94797.88;;;14.71;76.31
9855;BME280;4966;48.112;9.282;2023-06-26T03:12:53;94802.03;;;14.64;76.90
9855;BME280;4966;48.112;9.282;2023-06-26T03:15:18;94807.47;;;14.61;77.17
9855;BME280;4966;48.112;9.282;2023-06-26T03:17:44;94807.22;;;14.70;76.37
9855;BME280;4966;48.112;9.282;2023-06-26T03:20:09;94808.19;;;14.77;75.84
9855;BME280;4966;48.112;9.282;2023-06-26T03:22:36;94812.69;;;14.70;76.15
9855;BME280;4966;48.112;9.282;2023-06-26T03:25:02;94807.31;;;14.73;76.26
9855;BME280;4966;48.112;9.282;2023-06-26T03:27:27;94808.03;;;14.70;76.43
9855;BME280;4966;48.112;9.282;2023-06-26T03:29:53;94813.44;;;14.66;76.38
9855;BME280;4966;48.112;9.282;2023-06-26T03:32:18;94816.81;;;14.60;76.48
9855;BME280;4966;48.112;9.282;2023-06-26T03:34:43;94810.25;;;14.64;76.42
9855;BME280;4966;48.112;9.282;2023-06-26T03:37:09;94820.34;;;14.60;76.89
9855;BME280;4966;48.112;9.282;2023-06-26T03:39:34;94818.63;;;14.72;75.75
9855;BME280;4966;48.112;9.282;2023-06-26T03:41:59;94817.97;;;14.59;76.89
9855;BME280;4966;48.112;9.282;2023-06-26T03:44:27;94818.31;;;14.77;75.71
9855;BME280;4966;48.112;9.282;2023-06-26T03:46:52;94815.13;;;14.75;75.67
9855;BME280;4966;48.112;9.282;2023-06-26T03:49:18;94813.50;;;14.70;75.65
9855;BME280;4966;48.112;9.282;2023-06-26T03:51:44;94816.75;;;14.56;76.57
9855;BME280;4966;48.112;9.282;2023-06-26T03:54:11;94818.91;;;14.66;75.93
9855;BME280;4966;48.112;9.282;2023-06-26T03:56:36;94824.59;;;14.77;75.64
9855;BME280;4966;48.112;9.282;2023-06-26T03:59:01;94823.78;;;14.77;75.45
9855;BME280;4966;48.112;9.282;2023-06-26T04:01:27;94825.31;;;14.74;75.57
9855;BME280;4966;48.112;9.282;2023-06-26T04:03:53;94820.91;;;14.70;76.04
9855;BME280;4966;48.112;9.282;2023-06-26T04:06:18;94824.53;;;14.74;75.61
9855;BME280;4966;48.112;9.282;2023-06-26T04:08:43;94826.91;;;14.75;75.79
9855;BME280;4966;48.112;9.282;2023-06-26T04:11:09;94820.28;;;14.76;76.01
9855;BME280;4966;48.112;9.282;2023-06-26T04:13:34;94825.53;;;14.85;76.51
9855;BME280;4966;48.112;9.282;2023-06-26T04:15:59;94820.91;;;14.89;76.44
9855;BME280;4966;48.112;9.282;2023-06-26T04:18:25;94832.16;;;14.84;77.50
9855;BME280;4966;48.112;9.282;2023-06-26T04:21:12;94836.50;;;14.85;77.62
9855;BME280;4966;48.112;9.282;2023-06-26T04:23:39;94832.81;;;14.97;77.58
9855;BME280;4966;48.112;9.282;2023-06-26T04:26:05;94827.22;;;15.13;77.21
9855;BME280;4966;48.112;9.282;2023-06-26T04:28:32;94830.75;;;15.13;76.38
9855;BME280;4966;48.112;9.282;2023-06-26T04:30:58;94834.56;;;15.28;75.85
9855;BME280;4966;48.112;9.282;2023-06-26T04:33:24;94836.50;;;15.27;76.40
9855;BME280;4966;48.112;9.282;2023-06-26T04:35:50;94836.56;;;15.31;77.21
9855;BME280;4966;48.112;9.282;2023-06-26T04:38:16;94836.63;;;15.58;75.89
9855;BME280;4966;48.112;9.282;2023-06-26T04:40:41;94843.34;;;15.83;75.45
9855;BME280;4966;48.112;9.282;2023-06-26T04:43:06;94837.56;;;16.15;74.05
9855;BME280;4966;48.112;9.282;2023-06-26T04:45:32;94844.41;;;16.55;72.55
9855;BME280;4966;48.112;9.282;2023-06-26T04:47:57;94830.56;;;17.08;69.21
9855;BME280;4966;48.112;9.282;2023-06-26T04:50:24;94828.63;;;17.50;66.96
9855;BME280;4966;48.112;9.282;2023-06-26T04:52:50;94830.97;;;17.92;65.61
9855;BME280;4966;48.112;9.282;2023-06-26T04:55:15;94824.50;;;18.18;63.86
9855;BME280;4966;48.112;9.282;2023-06-26T04:57:40;94828.66;;;18.60;62.89
9855;BME280;4966;48.112;9.282;2023-06-26T05:00:06;94826.91;;;18.97;61.55
9855;BME280;4966;48.112;9.282;2023-06-26T05:02:36;94823.88;;;19.48;60.75
9855;BME280;4966;48.112;9.282;2023-06-26T05:05:02;94823.16;;;19.76;59.88
9855;BME280;4966;48.112;9.282;2023-06-26T05:07:27;94821.97;;;19.85;59.24
9855;BME280;4966;48.112;9.282;2023-06-26T05:09:53;94812.47;;;20.11;58.04
9855;BME280;4966;48.112;9.282;2023-06-26T05:12:18;94816.06;;;20.11;58.34
9855;BME280;4966;48.112;9.282;2023-06-26T05:14:44;94816.06;;;19.90;58.69
9855;BME280;4966;48.112;9.282;2023-06-26T05:17:10;94820.00;;;19.82;58.52
9855;BME280;4966;48.112;9.282;2023-06-26T05:19:35;94816.81;;;19.72;58.71
9855;BME280;4966;48.112;9.282;2023-06-26T05:22:01;94817.94;;;19.46;59.46
9855;BME280;4966;48.112;9.282;2023-06-26T05:24:30;94815.94;;;19.22;64.21
9855;BME280;4966;48.112;9.282;2023-06-26T05:26:55;94816.78;;;19.47;62.21
9855;BME280;4966;48.112;9.282;2023-06-26T05:29:21;94814.44;;;19.60;63.44
9855;BME280;4966;48.112;9.282;2023-06-26T05:31:48;94816.00;;;19.54;63.54
9855;BME280;4966;48.112;9.282;2023-06-26T05:34:15;94812.72;;;18.95;65.59
9855;BME280;4966;48.112;9.282;2023-06-26T05:36:42;94817.56;;;19.48;63.76
9855;BME280;4966;48.112;9.282;2023-06-26T05:39:08;94821.13;;;19.59;64.42
9855;BME280;4966;48.112;9.282;2023-06-26T05:41:34;94825.88;;;19.66;63.37
9855;BME280;4966;48.112;9.282;2023-06-26T05:44:00;94825.13;;;19.80;63.75
9855;BME280;4966;48.112;9.282;2023-06-26T05:46:25;94820.00;;;19.89;63.93
9855;BME280;4966;48.112;9.282;2023-06-26T05:48:50;94823.53;;;20.11;62.99
9855;BME280;4966;48.112;9.282;2023-06-26T05:51:16;94820.38;;;20.16;62.33
9855;BME280;4966;48.112;9.282;2023-06-26T05:53:41;94824.28;;;20.47;61.69
9855;BME280;4966;48.112;9.282;2023-06-26T05:56:07;94826.63;;;20.67;61.59
9855;BME280;4966;48.112;9.282;2023-06-26T05:58:33;94825.00;;;20.80;60.34
9855;BME280;4966;48.112;9.282;2023-06-26T06:00:59;94823.84;;;20.74;61.60
9855;BME280;4966;48.112;9.282;2023-06-26T06:03:24;94826.84;;;21.12;60.63
9855;BME280;4966;48.112;9.282;2023-06-26T06:05:50;94831.97;;;21.17;59.53
9855;BME280;4966;48.112;9.282;2023-06-26T06:08:15;94819.88;;;20.75;57.76
9855;BME280;4966;48.112;9.282;2023-06-26T06:10:40;94818.94;;;21.17;55.64
9855;BME280;4966;48.112;9.282;2023-06-26T06:13:06;94820.53;;;21.15;56.20
9855;BME280;4966;48.112;9.282;2023-06-26T06:15:31;94817.19;;;21.49;54.46
9855;BME280;4966;48.112;9.282;2023-06-26T06:17:56;94817.94;;;21.56;54.06
9855;BME280;4966;48.112;9.282;2023-06-26T06:20:21;94819.84;;;21.66;53.87
9855;BME280;4966;48.112;9.282;2023-06-26T06:22:47;94823.47;;;21.56;55.54
9855;BME280;4966;48.112;9.282;2023-06-26T06:25:14;94821.19;;;21.44;53.44
9855;BME280;4966;48.112;9.282;2023-06-26T06:27:39;94819.50;;;21.61;54.76
9855;BME280;4966;48.112;9.282;2023-06-26T06:30:05;94832.69;;;21.98;54.70
9855;BME280;4966;48.112;9.282;2023-06-26T06:32:31;94819.22;;;21.97;53.86
9855;BME280;4966;48.112;9.282;2023-06-26T06:34:56;94817.38;;;22.32;53.66
9855;BME280;4966;48.112;9.282;2023-06-26T06:37:22;94822.88;;;22.35;53.79
9855;BME280;4966;48.112;9.282;2023-06-26T06:39:47;94813.53;;;22.94;54.08
9855;BME280;4966;48.112;9.282;2023-06-26T06:42:13;94817.94;;;23.26;54.79
9855;BME280;4966;48.112;9.282;2023-06-26T06:44:38;94809.56;;;23.56;51.14
9855;BME280;4966;48.112;9.282;2023-06-26T06:47:03;94821.53;;;23.23;53.29
9855;BME280;4966;48.112;9.282;2023-06-26T06:49:29;94824.16;;;23.61;52.70
9855;BME280;4966;48.112;9.282;2023-06-26T06:51:54;94824.34;;;23.50;50.51
9855;BME280;4966;48.112;9.282;2023-06-26T06:54:19;94823.06;;;23.27;50.71
9855;BME280;4966;48.112;9.282;2023-06-26T06:56:45;94817.53;;;23.54;53.60
9855;BME280;4966;48.112;9.282;2023-06-26T06:59:10;94817.91;;;23.84;50.54
9855;BME280;4966;48.112;9.282;2023-06-26T07:01:35;94820.22;;;23.89;49.66
9855;BME280;4966;48.112;9.282;2023-06-26T07:04:00;94817.88;;;23.87;50.01
9855;BME280;4966;48.112;9.282;2023-06-26T07:06:26;94811.97;;;24.09;48.79
9855;BME280;4966;48.112;9.282;2023-06-26T07:08:51;94818.59;;;24.38;48.21
9855;BME280;4966;48.112;9.282;2023-06-26T07:11:16;94815.75;;;24.42;48.45
9855;BME280;4966;48.112;9.282;2023-06-26T07:13:42;94811.78;;;24.87;49.21
9855;BME280;4966;48.112;9.282;2023-06-26T07:16:07;94808.34;;;24.99;47.94
9855;BME280;4966;48.112;9.282;2023-06-26T07:18:37;94811.16;;;24.99;46.33
9855;BME280;4966;48.112;9.282;2023-06-26T07:21:03;94810.53;;;25.31;46.38
9855;BME280;4966;48.112;9.282;2023-06-26T07:23:28;94806.00;;;24.77;45.83
9855;BME280;4966;48.112;9.282;2023-06-26T07:25:53;94813.41;;;25.04;45.30
9855;BME280;4966;48.112;9.282;2023-06-26T07:28:19;94816.31;;;25.20;44.44
9855;BME280;4966;48.112;9.282;2023-06-26T07:30:44;94809.81;;;25.27;44.57
9855;BME280;4966;48.112;9.282;2023-06-26T07:33:09;94804.41;;;25.73;43.60
9855;BME280;4966;48.112;9.282;2023-06-26T07:35:35;94820.63;;;25.41;44.02
9855;BME280;4966;48.112;9.282;2023-06-26T07:38:00;94822.78;;;25.70;43.55
9855;BME280;4966;48.112;9.282;2023-06-26T07:40:26;94813.97;;;25.92;43.53
9855;BME280;4966;48.112;9.282;2023-06-26T07:42:51;94820.16;;;26.16;42.94
9855;BME280;4966;48.112;9.282;2023-06-26T07:45:18;94813.88;;;26.28;43.20
9855;BME280;4966;48.112;9.282;2023-06-26T07:47:44;94810.03;;;25.89;43.93
9855;BME280;4966;48.112;9.282;2023-06-26T07:50:10;94813.28;;;26.20;43.06
9855;BME280;4966;48.112;9.282;2023-06-26T07:52:36;94812.84;;;26.22;43.45
9855;BME280;4966;48.112;9.282;2023-06-26T07:55:01;94820.56;;;26.47;43.53
9855;BME280;4966;48.112;9.282;2023-06-26T07:57:29;94812.97;;;26.47;43.39
9855;BME280;4966;48.112;9.282;2023-06-26T07:59:54;94816.47;;;26.51;43.68
9855;BME280;4966;48.112;9.282;2023-06-26T08:02:20;94812.00;;;27.00;43.30
9855;BME280;4966;48.112;9.282;2023-06-26T08:04:46;94802.28;;;26.91;42.38
9855;BME280;4966;48.112;9.282;2023-06-26T08:07:11;94805.50;;;27.32;42.29
9855;BME280;4966;48.112;9.282;2023-06-26T08:09:36;94803.56;;;27.16;42.43
9855;BME280;4966;48.112;9.282;2023-06-26T08:12:02;94796.91;;;27.26;42.30
9855;BME280;4966;48.112;9.282;2023-06-26T08:14:27;94801.44;;;27.62;42.50
9855;BME280;4966;48.112;9.282;2023-06-26T08:16:53;94789.13;;;27.47;41.48
9855;BME280;4966;48.112;9.282;2023-06-26T08:19:18;94795.06;;;27.62;40.87
9855;BME280;4966;48.112;9.282;2023-06-26T08:21:44;94795.53;;;27.73;41.84
9855;BME280;4966;48.112;9.282;2023-06-26T08:24:11;94789.94;;;27.98;41.19
9855;BME280;4966;48.112;9.282;2023-06-26T08:26:38;94779.88;;;28.01;42.02
9855;BME280;4966;48.112;9.282;2023-06-26T08:29:03;94784.69;;;28.00;40.95
9855;BME280;4966;48.112;9.282;2023-06-26T08:31:33;94774.56;;;28.29;42.13
9855;BME280;4966;48.112;9.282;2023-06-26T08:34:00;94784.19;;;28.28;39.40
9855;BME280;4966;48.112;9.282;2023-06-26T08:36:25;94775.44;;;28.38;40.60
9855;BME280;4966;48.112;9.282;2023-06-26T08:38:50;94777.63;;;28.56;40.47
9855;BME280;4966;48.112;9.282;2023-06-26T08:41:16;94767.41;;;28.28;39.72
9855;BME280;4966;48.112;9.282;2023-06-26T08:43:41;94778.13;;;29.12;38.93
9855;BME280;4966;48.112;9.282;2023-06-26T08:46:07;94773.13;;;28.72;37.36
9855;BME280;4966;48.112;9.282;2023-06-26T08:48:33;94775.00;;;29.10;38.35
9855;BME280;4966;48.112;9.282;2023-06-26T08:51:16;94767.22;;;29.14;37.01
9855;BME280;4966;48.112;9.282;2023-06-26T08:56:24;94775.41;;;29.30;35.38
9855;BME280;4966;48.112;9.282;2023-06-26T08:58:50;94772.50;;;29.34;34.54
9855;BME280;4966;48.112;9.282;2023-06-26T09:01:16;94775.28;;;29.96;36.59
9855;BME280;4966;48.112;9.282;2023-06-26T09:03:42;94764.19;;;30.42;37.53
9855;BME280;4966;48.112;9.282;2023-06-26T09:06:08;94763.28;;;30.64;36.07
9855;BME280;4966;48.112;9.282;2023-06-26T09:08:34;94768.72;;;30.49;33.13
9855;BME280;4966;48.112;9.282;2023-06-26T09:10:59;94769.47;;;30.40;32.05
9855;BME280;4966;48.112;9.282;2023-06-26T09:13:25;94775.81;;;30.13;34.52
9855;BME280;4966;48.112;9.282;2023-06-26T09:15:54;94780.84;;;29.56;33.93
9855;BME280;4966;48.112;9.282;2023-06-26T09:18:20;94771.19;;;29.88;35.33
9855;BME280;4966;48.112;9.282;2023-06-26T09:20:46;94767.66;;;29.97;34.70
9855;BME280;4966;48.112;9.282;2023-06-26T09:23:12;94769.84;;;30.02;34.56
9855;BME280;4966;48.112;9.282;2023-06-26T09:25:39;94776.91;;;30.16;34.42
9855;BME280;4966;48.112;9.282;2023-06-26T09:28:05;94778.44;;;29.45;34.82
9855;BME280;4966;48.112;9.282;2023-06-26T09:30:32;94758.75;;;30.39;33.44
9855;BME280;4966;48.112;9.282;2023-06-26T09:32:57;94771.09;;;30.01;32.83
9855;BME280;4966;48.112;9.282;2023-06-26T09:35:37;94755.00;;;31.06;32.76
9855;BME280;4966;48.112;9.282;2023-06-26T09:38:03;94754.53;;;30.62;33.12
9855;BME280;4966;48.112;9.282;2023-06-26T09:40:29;94753.72;;;30.43;32.96
9855;BME280;4966;48.112;9.282;2023-06-26T09:43:02;94750.97;;;30.70;33.05
9855;BME280;4966;48.112;9.282;2023-06-26T09:45:27;94755.00;;;30.79;33.75
9855;BME280;4966;48.112;9.282;2023-06-26T09:47:53;94755.00;;;30.60;32.77
9855;BME280;4966;48.112;9.282;2023-06-26T09:50:22;94753.75;;;30.52;32.68
9855;BME280;4966;48.112;9.282;2023-06-26T09:52:51;94753.75;;;30.70;32.64
9855;BME280;4966;48.112;9.282;2023-06-26T09:55:19;94749.69;;;30.81;32.48
9855;BME280;4966;48.112;9.282;2023-06-26T09:57:45;94751.91;;;30.67;33.02
9855;BME280;4966;48.112;9.282;2023-06-26T10:00:11;94745.94;;;31.21;31.27
9855;BME280;4966;48.112;9.282;2023-06-26T10:02:37;94750.03;;;31.10;32.27
9855;BME280;4966;48.112;9.282;2023-06-26T10:05:02;94744.19;;;31.32;32.37
9855;BME280;4966;48.112;9.282;2023-06-26T10:07:28;94748.41;;;31.46;32.29
9855;BME280;4966;48.112;9.282;2023-06-26T10:09:55;94742.44;;;31.87;27.51
9855;BME280;4966;48.112;9.282;2023-06-26T10:12:29;94737.06;;;32.31;27.85
9855;BME280;4966;48.112;9.282;2023-06-26T10:14:56;94732.00;;;32.20;28.10
9855;BME280;4966;48.112;9.282;2023-06-26T10:17:25;94745.72;;;32.28;29.22
9855;BME280;4966;48.112;9.282;2023-06-26T10:19:50;94744.03;;;32.45;28.57
9855;BME280;4966;48.112;9.282;2023-06-26T10:22:20;94747.16;;;32.71;28.82
9855;BME280;4966;48.112;9.282;2023-06-26T10:24:47;94745.22;;;33.16;28.18
9855;BME280;4966;48.112;9.282;2023-06-26T10:27:19;94747.16;;;33.70;28.08
9855;BME280;4966;48.112;9.282;2023-06-26T10:29:53;94749.56;;;33.32;28.39
9855;BME280;4966;48.112;9.282;2023-06-26T10:32:21;94744.38;;;32.38;27.15
9855;BME280;4966;48.112;9.282;2023-06-26T10:34:48;94749.81;;;32.17;26.05
9855;BME280;4966;48.112;9.282;2023-06-26T10:37:13;94745.50;;;31.65;27.51
9855;BME280;4966;48.112;9.282;2023-06-26T10:39:52;94757.47;;;31.32;28.62
9855;BME280;4966;48.112;9.282;2023-06-26T10:42:34;94741.84;;;31.31;29.47
9855;BME280;4966;48.112;9.282;2023-06-26T10:45:09;94743.59;;;31.10;30.25
9855;BME280;4966;48.112;9.282;2023-06-26T10:47:36;94746.94;;;31.60;30.16
9855;BME280;4966;48.112;9.282;2023-06-26T10:50:24;94748.31;;;31.65;31.21
9855;BME280;4966;48.112;9.282;2023-06-26T10:56:02;94745.50;;;31.65;31.64
9855;BME280;4966;48.112;9.282;2023-06-26T11:03:37;94751.47;;;31.57;32.01
9855;BME280;4966;48.112;9.282;2023-06-26T11:06:12;94753.03;;;32.01;31.70
9855;BME280;4966;48.112;9.282;2023-06-26T11:08:48;94755.44;;;31.84;32.60
9855;BME280;4966;48.112;9.282;2023-06-26T11:11:14;94755.91;;;31.40;33.79
9855;BME280;4966;48.112;9.282;2023-06-26T11:13:41;94756.56;;;31.16;33.04
9855;BME280;4966;48.112;9.282;2023-06-26T11:16:06;94750.19;;;34.01;29.24
9855;BME280;4966;48.112;9.282;2023-06-26T11:18:32;94743.59;;;34.81;27.04
9855;BME280;4966;48.112;9.282;2023-06-26T11:21:11;94749.22;;;34.40;27.20
9855;BME280;4966;48.112;9.282;2023-06-26T11:23:40;94739.16;;;33.83;28.70
9855;BME280;4966;48.112;9.282;2023-06-26T11:26:21;94734.69;;;32.78;31.28
9855;BME280;4966;48.112;9.282;2023-06-26T11:28:54;94743.72;;;35.65;27.83
9855;BME280;4966;48.112;9.282;2023-06-26T11:31:34;94740.19;;;34.97;27.99
9855;BME280;4966;48.112;9.282;2023-06-26T11:34:03;94736.59;;;34.76;29.05
9855;BME280;4966;48.112;9.282;2023-06-26T11:36:29;94740.78;;;35.27;27.80
9855;BME280;4966;48.112;9.282;2023-06-26T11:38:59;94748.00;;;34.61;28.29
9855;BME280;4966;48.112;9.282;2023-06-26T11:41:27;94752.88;;;34.25;27.54
9855;BME280;4966;48.112;9.282;2023-06-26T11:43:53;94752.31;;;33.26;27.80
9855;BME280;4966;48.112;9.282;2023-06-26T11:46:20;94759.94;;;32.00;30.82
9855;BME280;4966;48.112;9.282;2023-06-26T11:48:45;94760.09;;;31.54;32.08
9855;BME280;4966;48.112;9.282;2023-06-26T11:51:15;94761.72;;;30.90;32.37
9855;BME280;4966;48.112;9.282;2023-06-26T11:53:41;94760.47;;;31.01;33.21
9855;BME280;4966;48.112;9.282;2023-06-26T11:56:12;94756.88;;;30.91;33.43
9855;BME280;4966;48.112;9.282;2023-06-26T11:59:03;94755.44;;;31.32;32.92
9855;BME280;4966;48.112;9.282;2023-06-26T12:01:42;94757.59;;;31.37;33.28
9855;BME280;4966;48.112;9.282;2023-06-26T12:04:09;94757.25;;;33.91;30.08
9855;BME280;4966;48.112;9.282;2023-06-26T12:06:36;94747.03;;;35.95;26.57
9855;BME280;4966;48.112;9.282;2023-06-26T12:09:05;94743.03;;;37.10;23.61
9855;BME280;4966;48.112;9.282;2023-06-26T12:11:30;94742.06;;;38.26;21.68
9855;BME280;4966;48.112;9.282;2023-06-26T12:13:57;94734.53;;;39.56;19.94
9855;BME280;4966;48.112;9.282;2023-06-26T12:16:22;94730.44;;;39.88;20.53
9855;BME280;4966;48.112;9.282;2023-06-26T12:18:48;94733.47;;;38.65;20.96
9855;BME280;4966;48.112;9.282;2023-06-26T12:24:07;94751.44;;;34.50;27.59
9855;BME280;4966;48.112;9.282;2023-06-26T12:26:33;94752.41;;;33.17;29.29
9855;BME280;4966;48.112;9.282;2023-06-26T12:31:28;94752.31;;;33.26;30.29
9855;BME280;4966;48.112;9.282;2023-06-26T12:33:53;94741.00;;;32.49;30.25
9855;BME280;4966;48.112;9.282;2023-06-26T12:36:18;94738.84;;;31.86;31.35
9855;BME280;4966;48.112;9.282;2023-06-26T12:38:45;94737.31;;;32.42;29.84
9855;BME280;4966;48.112;9.282;2023-06-26T12:41:14;94741.03;;;33.56;27.70
9855;BME280;4966;48.112;9.282;2023-06-26T12:43:43;94737.63;;;34.02;27.90
9855;BME280;4966;48.112;9.282;2023-06-26T12:46:08;94730.53;;;33.72;29.36
9855;BME280;4966;48.112;9.282;2023-06-26T12:48:42;94723.69;;;33.78;30.07
9855;BME280;4966;48.112;9.282;2023-06-26T12:51:13;94731.28;;;32.59;32.03
9855;BME280;4966;48.112;9.282;2023-06-26T12:53:40;94726.19;;;32.24;32.51
9855;BME280;4966;48.112;9.282;2023-06-26T12:56:06;94728.53;;;31.92;32.86
9855;BME280;4966;48.112;9.282;2023-06-26T12:58:33;94739.06;;;32.16;32.02
9855;BME280;4966;48.112;9.282;2023-06-26T13:00:59;94731.03;;;31.57;32.60
9855;BME280;4966;48.112;9.282;2023-06-26T13:03:24;94735.56;;;31.97;33.42
9855;BME280;4966;48.112;9.282;2023-06-26T13:05:50;94734.56;;;31.67;32.77
9855;BME280;4966;48.112;9.282;2023-06-26T13:08:16;94728.03;;;31.94;31.84
9855;BME280;4966;48.112;9.282;2023-06-26T13:10:42;94729.75;;;33.41;30.22
9855;BME280;4966;48.112;9.282;2023-06-26T13:13:10;94716.84;;;35.23;27.63
9855;BME280;4966;48.112;9.282;2023-06-26T13:15:36;94718.41;;;36.73;25.13
9855;BME280;4966;48.112;9.282;2023-06-26T13:18:01;94711.34;;;36.09;26.39
9855;BME280;4966;48.112;9.282;2023-06-26T13:20:27;94715.16;;;36.37;26.32
9855;BME280;4966;48.112;9.282;2023-06-26T13:22:53;94711.78;;;35.96;25.69
9855;BME280;4966;48.112;9.282;2023-06-26T13:25:19;94718.63;;;35.84;25.50
9855;BME280;4966;48.112;9.282;2023-06-26T13:27:44;94708.25;;;35.11;25.23
9855;BME280;4966;48.112;9.282;2023-06-26T13:30:10;94709.72;;;34.60;25.84
9855;BME280;4966;48.112;9.282;2023-06-26T13:32:35;94710.63;;;33.81;26.85
9855;BME280;4966;48.112;9.282;2023-06-26T13:35:01;94700.94;;;34.38;26.09
9855;BME280;4966;48.112;9.282;2023-06-26T13:37:26;94708.31;;;34.97;25.55
9855;BME280;4966;48.112;9.282;2023-06-26T13:39:51;94717.63;;;36.73;23.88
9855;BME280;4966;48.112;9.282;2023-06-26T13:42:18;94712.44;;;37.65;22.76